createdAt,value
2022-11-30T09:49:46.274Z,0.92
2022-11-30T09:52:19.559Z,0.90
2022-11-30T09:54:47.387Z,0.84
2022-11-30T09:57:33.965Z,0.80
2022-11-30T10:00:12.804Z,0.77
2022-11-30T10:02:39.244Z,0.76
2022-11-30T10:05:14.521Z,0.77
2022-11-30T10:08:16.757Z,0.78
2022-11-30T10:10:56.292Z,0.77
2022-11-30T10:13:40.298Z,0.75
2022-11-30T10:16:06.741Z,0.74
2022-11-30T10:18:50.245Z,0.71
2022-11-30T10:21:32.964Z,0.68
2022-11-30T10:24:08.461Z,0.62
2022-11-30T10:26:37.547Z,0.60
2022-11-30T10:29:17.564Z,0.61
2022-11-30T10:31:46.702Z,0.62
2022-11-30T10:34:20.612Z,0.66
2022-11-30T10:36:53.671Z,0.69
2022-11-30T10:39:25.660Z,0.71
2022-11-30T10:41:59.268Z,0.69
2022-11-30T10:44:33.043Z,0.65
2022-11-30T10:47:11.279Z,0.63
2022-11-30T10:49:41.870Z,0.63
2022-11-30T10:52:08.618Z,0.64
2022-11-30T10:54:38.473Z,0.62
2022-11-30T10:57:08.331Z,0.61
2022-11-30T10:59:43.423Z,0.60
2022-11-30T11:02:34.148Z,0.60
2022-11-30T11:05:30.434Z,0.66
2022-11-30T11:08:06.726Z,0.65
2022-11-30T11:10:33.364Z,0.64
2022-11-30T11:12:59.723Z,0.65
2022-11-30T11:15:31.599Z,0.65
2022-11-30T11:18:17.438Z,0.65
2022-11-30T11:20:44.121Z,0.67
2022-11-30T11:23:29.495Z,0.67
2022-11-30T11:25:56.905Z,0.67
2022-11-30T11:28:24.673Z,0.67
2022-11-30T11:30:56.323Z,0.68
2022-11-30T11:33:25.830Z,0.67
2022-11-30T11:36:09.151Z,0.65
2022-11-30T11:38:42.424Z,0.64
2022-11-30T11:41:19.565Z,0.65
2022-11-30T11:44:22.214Z,0.66
2022-11-30T11:46:59.097Z,0.66
2022-11-30T11:49:28.203Z,0.68
2022-11-30T11:52:10.386Z,0.72
2022-11-30T11:54:55.398Z,0.75
2022-11-30T11:57:33.328Z,0.77
2022-11-30T12:00:16.272Z,0.74
2022-11-30T12:03:15.180Z,0.70
2022-11-30T12:06:17.869Z,0.70
2022-11-30T12:08:57.008Z,0.73
2022-11-30T12:11:41.010Z,0.74
2022-11-30T12:14:13.029Z,0.68
2022-11-30T12:17:18.563Z,0.59
2022-11-30T12:20:04.770Z,0.56
2022-11-30T12:22:54.386Z,0.59
2022-11-30T12:25:23.523Z,0.65
2022-11-30T12:28:06.738Z,0.69
2022-11-30T12:31:04.010Z,0.73
2022-11-30T12:33:53.534Z,0.75
2022-11-30T12:36:43.416Z,0.76
2022-11-30T12:39:24.358Z,0.77
2022-11-30T12:42:08.529Z,0.77
2022-11-30T12:45:06.774Z,0.78
2022-11-30T12:47:48.243Z,0.76
2022-11-30T12:50:33.295Z,0.68
2022-11-30T12:53:13.436Z,0.64
2022-11-30T12:55:44.925Z,0.63
2022-11-30T12:58:43.157Z,0.67
2022-11-30T13:01:20.792Z,0.70
2022-11-30T13:04:03.279Z,0.74
2022-11-30T13:06:36.980Z,0.76
2022-11-30T13:09:11.203Z,0.80
2022-11-30T13:11:40.816Z,0.81
2022-11-30T13:14:15.732Z,0.80
2022-11-30T13:16:43.528Z,0.82
2022-11-30T13:19:28.576Z,0.86
2022-11-30T13:22:02.374Z,0.89
2022-11-30T13:24:35.161Z,0.87
2022-11-30T13:27:10.337Z,0.87
2022-11-30T13:30:09.506Z,0.88
2022-11-30T13:35:28.778Z,0.94
2022-11-30T13:38:34.716Z,0.95
2022-11-30T13:41:08.312Z,0.94
2022-11-30T13:43:42.151Z,0.94
2022-11-30T13:46:24.566Z,0.91
2022-11-30T13:49:27.363Z,0.91
2022-11-30T13:52:20.690Z,0.93
2022-11-30T13:54:47.408Z,0.97
2022-11-30T13:57:30.011Z,1.00
2022-11-30T14:00:01.479Z,1.00
2022-11-30T14:02:41.665Z,1.01
2022-11-30T14:05:24.947Z,1.02
2022-11-30T14:07:51.193Z,0.99
2022-11-30T14:10:28.726Z,0.99
2022-11-30T14:13:00.322Z,0.97
2022-11-30T14:15:42.875Z,0.94
2022-11-30T14:18:09.024Z,0.93
2022-11-30T14:20:51.268Z,0.92
2022-11-30T14:23:22.478Z,0.92
2022-11-30T14:25:51.553Z,0.96
2022-11-30T14:28:22.330Z,0.99
2022-11-30T14:30:49.822Z,1.03
2022-11-30T14:33:39.107Z,1.06
2022-11-30T14:36:07.050Z,1.08
2022-11-30T14:38:40.030Z,1.11
2022-11-30T14:41:27.220Z,1.12
2022-11-30T14:44:13.566Z,1.08
2022-11-30T14:46:40.265Z,1.07
2022-11-30T14:49:29.418Z,1.03
2022-11-30T14:52:03.755Z,1.00
2022-11-30T14:54:53.464Z,1.00
2022-11-30T14:57:41.195Z,1.03
2022-11-30T15:00:16.672Z,1.07
2022-11-30T15:02:44.728Z,1.09
2022-11-30T15:05:18.906Z,1.12
2022-11-30T15:07:45.735Z,1.14
2022-11-30T15:10:17.314Z,1.13
2022-11-30T15:12:44.382Z,1.10
2022-11-30T15:15:19.756Z,1.09
2022-11-30T15:17:52.522Z,1.10
2022-11-30T15:20:25.259Z,1.12
2022-11-30T15:22:53.820Z,1.14
2022-11-30T15:25:23.752Z,1.19
2022-11-30T15:27:50.422Z,1.23
2022-11-30T15:30:17.106Z,1.27
2022-11-30T15:32:45.972Z,1.29
2022-11-30T15:35:19.362Z,1.27
2022-11-30T15:37:47.135Z,1.29
2022-11-30T15:40:20.694Z,1.30
2022-11-30T15:42:48.586Z,1.29
2022-11-30T15:45:20.919Z,1.24
2022-11-30T15:47:48.037Z,1.21
2022-11-30T15:50:32.382Z,1.20
2022-11-30T15:53:24.966Z,1.21
2022-11-30T15:55:54.347Z,1.24
2022-11-30T15:58:24.797Z,1.28
2022-11-30T16:01:11.641Z,1.34
2022-11-30T16:03:59.937Z,1.38
2022-11-30T16:06:46.583Z,1.42
2022-11-30T16:09:23.366Z,1.41
2022-11-30T16:11:53.415Z,1.42
2022-11-30T16:14:19.871Z,1.42
2022-11-30T16:16:46.241Z,1.42
2022-11-30T16:19:12.752Z,1.42
2022-11-30T16:21:39.307Z,1.42
2022-11-30T16:24:05.923Z,1.42
2022-11-30T16:29:19.237Z,1.50
2022-11-30T16:31:45.594Z,1.52
2022-11-30T16:34:11.942Z,1.54
2022-11-30T16:36:38.317Z,1.56
2022-11-30T16:39:05.055Z,1.56
2022-11-30T16:41:33.918Z,1.58
2022-11-30T16:44:00.141Z,1.59
2022-11-30T16:46:28.641Z,1.60
2022-11-30T16:48:55.325Z,1.57
2022-11-30T16:51:27.537Z,1.55
2022-11-30T16:53:54.578Z,1.57
2022-11-30T16:56:21.324Z,1.62
2022-11-30T16:58:47.970Z,1.66
2022-11-30T17:01:24.636Z,1.68
2022-11-30T17:03:51.374Z,1.71
2022-11-30T17:06:21.976Z,1.73
2022-11-30T17:08:49.440Z,1.73
2022-11-30T17:11:22.558Z,1.71
2022-11-30T17:13:48.727Z,1.68
2022-11-30T17:16:15.056Z,1.64
2022-11-30T17:18:41.468Z,1.62
2022-11-30T17:21:13.725Z,1.58
2022-11-30T17:23:39.909Z,1.57
2022-11-30T17:26:06.107Z,1.57
2022-11-30T17:28:32.404Z,1.57
2022-11-30T17:30:58.679Z,1.57
2022-11-30T17:33:24.842Z,1.61
2022-11-30T17:35:51.147Z,1.63
2022-11-30T17:38:17.348Z,1.64
2022-11-30T17:40:44.410Z,1.67
2022-11-30T17:43:10.606Z,1.71
2022-11-30T17:45:39.995Z,1.69
2022-11-30T17:48:06.247Z,1.66
2022-11-30T17:50:32.567Z,1.61
2022-11-30T17:52:58.853Z,1.56
2022-11-30T17:55:26.372Z,1.53
2022-11-30T17:57:52.543Z,1.52
2022-11-30T18:00:19.507Z,1.52
2022-11-30T18:02:50.181Z,1.52
2022-11-30T18:05:16.521Z,1.56
2022-11-30T18:07:42.942Z,1.61
2022-11-30T18:10:09.861Z,1.65
2022-11-30T18:12:36.424Z,1.70
2022-11-30T18:15:03.225Z,1.70
2022-11-30T18:17:30.896Z,1.71
2022-11-30T18:19:57.044Z,1.71
2022-11-30T18:22:23.972Z,1.70
2022-11-30T18:24:50.530Z,1.67
2022-11-30T18:27:16.974Z,1.65
2022-11-30T18:29:43.152Z,1.62
2022-11-30T18:32:09.710Z,1.62
2022-11-30T18:34:35.955Z,1.62
2022-11-30T18:37:02.310Z,1.64
2022-11-30T18:39:28.625Z,1.67
2022-11-30T18:41:55.150Z,1.64
2022-11-30T18:44:21.604Z,1.62
2022-11-30T18:46:47.820Z,1.61
2022-11-30T18:49:14.039Z,1.62
2022-11-30T18:51:40.249Z,1.60
2022-11-30T18:54:09.212Z,1.58
2022-11-30T18:56:37.401Z,1.57
2022-11-30T18:59:09.787Z,1.55
2022-11-30T19:01:36.203Z,1.54
2022-11-30T19:04:06.098Z,1.53
2022-11-30T19:06:32.484Z,1.54
2022-11-30T19:09:02.398Z,1.55
2022-11-30T19:11:28.785Z,1.58
2022-11-30T19:13:56.585Z,1.63
2022-11-30T19:16:23.887Z,1.65
2022-11-30T19:18:51.264Z,1.65
2022-11-30T19:21:19.747Z,1.66
2022-11-30T19:23:47.232Z,1.64
2022-11-30T19:26:13.952Z,1.64
2022-11-30T19:28:42.393Z,1.62
2022-11-30T19:31:12.374Z,1.60
2022-11-30T19:33:40.816Z,1.62
2022-11-30T19:36:11.552Z,1.63
2022-11-30T19:38:37.879Z,1.66
2022-11-30T19:41:09.153Z,1.70
2022-11-30T19:43:36.252Z,1.71
2022-11-30T19:46:07.707Z,1.68
2022-11-30T19:48:34.923Z,1.66
2022-11-30T19:51:06.525Z,1.64
2022-11-30T19:53:33.983Z,1.60
2022-11-30T19:56:13.020Z,1.56
2022-11-30T19:58:40.380Z,1.52
2022-11-30T20:01:14.516Z,1.48
2022-11-30T20:03:41.074Z,1.47
2022-11-30T20:06:07.365Z,1.45
2022-11-30T20:08:33.592Z,1.41
2022-11-30T20:10:59.755Z,1.42
2022-11-30T20:13:25.949Z,1.43
2022-11-30T20:15:52.180Z,1.46
2022-11-30T20:18:18.538Z,1.49
2022-11-30T20:20:44.753Z,1.51
2022-11-30T20:23:10.977Z,1.54
2022-11-30T20:25:37.510Z,1.56
2022-11-30T20:28:08.272Z,1.57
2022-11-30T20:30:37.510Z,1.56
2022-11-30T20:33:03.721Z,1.60
2022-11-30T20:35:29.945Z,1.62
2022-11-30T20:37:56.136Z,1.61
2022-11-30T20:40:23.069Z,1.62
2022-11-30T20:42:50.835Z,1.61
2022-11-30T20:45:17.293Z,1.61
2022-11-30T20:47:43.756Z,1.62
2022-11-30T20:50:10.453Z,1.64
2022-11-30T20:52:37.803Z,1.63
2022-11-30T20:55:04.350Z,1.62
2022-11-30T20:57:30.565Z,1.62
2022-11-30T20:59:56.769Z,1.58
2022-11-30T21:02:23.051Z,1.57
2022-11-30T21:04:49.537Z,1.54
2022-11-30T21:07:16.064Z,1.54
2022-11-30T21:09:42.633Z,1.54
2022-11-30T21:12:08.785Z,1.52
2022-11-30T21:14:35.571Z,1.52
2022-11-30T21:17:01.756Z,1.50
2022-11-30T21:19:28.015Z,1.51
2022-11-30T21:21:55.271Z,1.52
2022-11-30T21:24:21.464Z,1.53
2022-11-30T21:26:47.687Z,1.55
2022-11-30T21:29:15.783Z,1.58
2022-11-30T21:31:42.586Z,1.57
2022-11-30T21:34:09.024Z,1.53
2022-11-30T21:36:35.308Z,1.51
2022-11-30T21:39:06.333Z,1.51
2022-11-30T21:41:36.810Z,1.52
2022-11-30T21:44:04.760Z,1.53
2022-11-30T21:46:31.275Z,1.52
2022-11-30T21:48:57.707Z,1.53
2022-11-30T21:51:27.023Z,1.55
2022-11-30T21:53:56.171Z,1.60
2022-11-30T21:56:25.301Z,1.62
2022-11-30T21:58:52.163Z,1.62
2022-11-30T22:01:29.875Z,1.63
2022-11-30T22:03:57.473Z,1.63
2022-11-30T22:06:25.412Z,1.63
2022-11-30T22:08:51.739Z,1.64
2022-11-30T22:11:21.237Z,1.64
2022-11-30T22:13:52.788Z,1.64
2022-11-30T22:16:21.236Z,1.63
2022-11-30T22:18:50.709Z,1.61
2022-11-30T22:21:19.226Z,1.64
2022-11-30T22:23:51.777Z,1.66
2022-11-30T22:26:20.901Z,1.67
2022-11-30T22:28:49.792Z,1.72
2022-11-30T22:31:18.273Z,1.77
2022-11-30T22:33:45.177Z,1.79
2022-11-30T22:36:14.797Z,1.82
2022-11-30T22:38:41.477Z,1.83
2022-11-30T22:41:16.384Z,1.82
2022-11-30T22:43:45.398Z,1.76
2022-11-30T22:46:14.200Z,1.66
2022-11-30T22:48:40.845Z,1.54
2022-11-30T22:51:13.613Z,1.46
2022-11-30T22:53:40.936Z,1.41
2022-11-30T22:56:11.698Z,1.42
2022-11-30T22:58:39.556Z,1.42
2022-11-30T23:01:23.988Z,1.40
2022-11-30T23:03:52.767Z,1.39
2022-11-30T23:06:20.222Z,1.39
2022-11-30T23:08:47.719Z,1.35
2022-11-30T23:11:17.284Z,1.31
2022-11-30T23:13:43.949Z,1.33
2022-11-30T23:16:12.303Z,1.34
2022-11-30T23:18:39.770Z,1.36
2022-11-30T23:21:10.278Z,1.37
2022-11-30T23:23:36.484Z,1.38
2022-11-30T23:26:20.583Z,1.37
2022-11-30T23:28:48.810Z,1.37
2022-11-30T23:31:32.448Z,1.35
2022-11-30T23:34:03.643Z,1.35
2022-11-30T23:36:29.974Z,1.33
2022-11-30T23:38:58.566Z,1.36
2022-11-30T23:41:26.449Z,1.38
2022-11-30T23:43:52.972Z,1.38
2022-11-30T23:46:19.612Z,1.38
2022-11-30T23:48:45.841Z,1.34
2022-11-30T23:51:12.016Z,1.30
2022-11-30T23:53:38.420Z,1.29
2022-11-30T23:56:08.456Z,1.32
2022-11-30T23:58:34.853Z,1.37
